Time;durP1;ratioP1;P1;durP2;ratioP2;P2;SDS_P1;SDS_P2;PMS_P1;PMS_P2;Temp;Humidity;BMP_temperature;BMP_pressure;BME280_temperature;BME280_humidity;BME280_pressure;Samples;Min_cycle;Max_cycle;Signal;HPM_P1;HPM_P2
2022/05/12 00:01:15;;;;;;;1.67;1.52;;;13.30;99.90;;;;;;4969055;29;20059;-77
2022/05/12 00:03:41;;;;;;;2.63;1.30;;;13.10;99.90;;;;;;4969176;29;20031;-77
2022/05/12 00:06:10;;;;;;;1.30;1.20;;;13.10;99.90;;;;;;4971167;29;20027;-77
2022/05/12 00:08:48;;;;;;;1.50;1.40;;;13.00;99.90;;;;;;4957216;29;20074;-77
2022/05/12 00:11:14;;;;;;;1.40;1.30;;;13.00;99.90;;;;;;4972265;29;20024;-77
2022/05/12 00:13:40;;;;;;;1.33;1.20;;;13.00;99.90;;;;;;4973483;29;20035;-77
2022/05/12 00:16:05;;;;;;;1.40;1.30;;;12.90;99.90;;;;;;4967244;29;20031;-77
2022/05/12 00:18:31;;;;;;;1.75;1.65;;;13.00;99.90;;;;;;4970240;29;20032;-77
2022/05/12 00:20:57;;;;;;;1.73;1.63;;;13.00;99.90;;;;;;4972927;29;20030;-78
2022/05/12 00:23:28;;;;;;;1.65;1.55;;;12.90;99.90;;;;;;4973054;29;20027;-77
2022/05/12 00:25:55;;;;;;;1.70;1.20;;;12.90;99.90;;;;;;4970612;29;20132;-77
2022/05/12 00:28:24;;;;;;;1.63;1.52;;;12.80;99.90;;;;;;4971941;29;20024;-77
2022/05/12 00:30:55;;;;;;;1.67;1.58;;;12.70;99.90;;;;;;4970093;29;20514;-77
2022/05/12 00:33:22;;;;;;;3.50;1.58;;;12.60;99.90;;;;;;4970706;29;20035;-77
2022/05/12 00:35:48;;;;;;;1.98;1.50;;;12.60;99.90;;;;;;4971567;29;20019;-77
2022/05/12 00:38:14;;;;;;;2.40;1.48;;;12.70;99.90;;;;;;4971494;29;20063;-78
2022/05/12 00:40:42;;;;;;;1.70;1.10;;;12.70;99.90;;;;;;4974917;29;20032;-77
2022/05/12 00:43:35;;;;;;;7.03;2.03;;;12.80;99.90;;;;;;4971841;29;20020;-78
2022/05/12 00:46:01;;;;;;;1.75;1.23;;;;;;;;;;4972580;28;20055;-77
2022/05/12 00:48:27;;;;;;;2.35;1.00;;;12.80;99.90;;;;;;4974112;29;20028;-77
2022/05/12 00:50:54;;;;;;;1.52;1.27;;;12.70;99.90;;;;;;4973589;29;20046;-77
2022/05/12 00:53:20;;;;;;;1.80;1.70;;;12.80;99.90;;;;;;4971177;29;20078;-77
2022/05/12 00:55:47;;;;;;;2.10;1.90;;;10.90;99.90;;;;;;4971727;29;20032;-77
2022/05/12 00:58:17;;;;;;;1.67;1.35;;;12.70;99.90;;;;;;4970189;28;20590;-77
2022/05/12 01:00:44;;;;;;;1.92;1.63;;;12.60;99.90;;;;;;4971795;29;20045;-77
2022/05/12 01:03:13;;;;;;;1.70;1.60;;;12.50;99.90;;;;;;4969329;29;20027;-77
2022/05/12 01:05:39;;;;;;;4.00;1.85;;;12.50;99.90;;;;;;4973142;29;20019;-77
2022/05/12 01:08:09;;;;;;;1.45;1.30;;;12.40;99.90;;;;;;4958211;29;20039;-77
2022/05/12 01:10:36;;;;;;;1.60;1.27;;;12.30;99.90;;;;;;4957130;28;20227;-77
2022/05/12 01:13:02;;;;;;;1.40;1.30;;;12.30;99.90;;;;;;4955172;29;20055;-77
2022/05/12 01:15:28;;;;;;;2.97;1.75;;;12.30;99.90;;;;;;4957037;29;20027;-77
2022/05/12 01:18:05;;;;;;;2.17;1.50;;;12.30;99.90;;;;;;4957233;29;20107;-77
2022/05/12 01:20:33;;;;;;;2.38;1.38;;;12.30;99.90;;;;;;4950697;29;20282;-76
2022/05/12 01:23:19;;;;;;;2.22;1.67;;;12.30;99.90;;;;;;4955531;29;20495;-77
2022/05/12 01:25:44;;;;;;;4.90;1.55;;;12.30;99.90;;;;;;4954385;29;20077;-77
2022/05/12 01:28:10;;;;;;;2.08;1.13;;;12.30;99.90;;;;;;4954283;29;20055;-77
2022/05/12 01:30:36;;;;;;;1.92;1.20;;;12.30;99.90;;;;;;4954802;29;20038;-77
2022/05/12 01:33:02;;;;;;;1.40;1.30;;;12.30;99.90;;;;;;4954747;29;20034;-77
2022/05/12 01:35:27;;;;;;;1.40;1.30;;;12.30;99.90;;;;;;4957117;29;20372;-77
2022/05/12 01:38:04;;;;;;;2.08;1.25;;;12.30;99.90;;;;;;4955638;29;20122;-77
2022/05/12 01:40:30;;;;;;;1.45;1.35;;;12.30;99.90;;;;;;4954757;29;20031;-77
2022/05/12 01:42:56;;;;;;;1.30;1.02;;;12.30;99.90;;;;;;4955907;29;20058;-77
2022/05/12 01:45:22;;;;;;;1.15;0.90;;;12.40;99.90;;;;;;4955866;29;20039;-77
2022/05/12 01:47:50;;;;;;;3.90;2.13;;;12.40;99.90;;;;;;4956182;29;20027;-77
2022/05/12 01:50:16;;;;;;;1.50;1.40;;;12.30;99.90;;;;;;4954840;28;20027;-77
2022/05/12 01:52:43;;;;;;;2.03;1.92;;;12.30;99.90;;;;;;4956466;29;20388;-77
2022/05/12 01:55:23;;;;;;;1.20;1.00;;;12.20;99.90;;;;;;4958623;29;20035;-77
2022/05/12 01:57:49;;;;;;;1.60;1.27;;;12.30;99.90;;;;;;4966407;29;20051;-77
2022/05/12 02:00:38;;;;;;;1.98;1.88;;;12.20;99.90;;;;;;4965101;29;20043;-77
2022/05/12 02:03:09;;;;;;;;;;;12.20;99.90;;;;;;4970408;29;20043;-77
2022/05/12 02:05:54;;;;;;;2.80;1.33;;;;;;;;;;4970595;29;19906;-77
2022/05/12 02:08:20;;;;;;;1.40;1.30;;;12.20;99.90;;;;;;4968858;29;20039;-77
2022/05/12 02:10:49;;;;;;;2.15;1.10;;;12.20;99.90;;;;;;4970975;29;20027;-77
2022/05/12 02:13:17;;;;;;;1.50;1.40;;;12.20;99.90;;;;;;4966726;29;20214;-77
2022/05/12 02:15:43;;;;;;;3.13;1.48;;;;;;;;;;4965093;29;20022;-77
2022/05/12 02:18:10;;;;;;;1.65;1.38;;;12.10;99.90;;;;;;4970466;29;20051;-77
2022/05/12 02:20:36;;;;;;;1.58;1.48;;;12.10;99.90;;;;;;4969727;29;20020;-77
2022/05/12 02:23:01;;;;;;;1.00;1.00;;;12.00;99.90;;;;;;4969459;28;20031;-77
2022/05/12 02:25:27;;;;;;;1.30;1.20;;;12.00;99.90;;;;;;4969407;29;20075;-77
2022/05/12 02:27:55;;;;;;;1.63;1.17;;;12.10;99.90;;;;;;4970685;29;20098;-77
2022/05/12 02:30:26;;;;;;;3.03;1.30;;;12.10;99.90;;;;;;4969392;29;20035;-77
2022/05/12 02:32:53;;;;;;;2.20;1.45;;;12.00;99.90;;;;;;4968780;29;20136;-77
2022/05/12 02:35:19;;;;;;;2.05;1.48;;;11.80;99.90;;;;;;4970801;29;20024;-77
2022/05/12 02:37:45;;;;;;;2.47;1.38;;;11.70;99.90;;;;;;4968052;29;20492;-77
2022/05/12 02:40:14;;;;;;;1.30;1.20;;;11.60;99.90;;;;;;4970137;29;20035;-77
2022/05/12 02:42:40;;;;;;;1.13;1.00;;;11.60;99.90;;;;;;4969545;29;20033;-77
2022/05/12 02:45:07;;;;;;;2.92;1.92;;;11.70;99.90;;;;;;4969269;29;20023;-77
2022/05/12 02:47:32;;;;;;;1.40;1.30;;;11.60;99.90;;;;;;4968427;29;20027;-77
2022/05/12 02:49:58;;;;;;;1.10;1.00;;;11.60;99.90;;;;;;4966286;29;20559;-77
2022/05/12 02:52:40;;;;;;;2.45;1.20;;;11.70;99.90;;;;;;4968169;29;20059;-77
2022/05/12 02:55:06;;;;;;;1.17;1.08;;;11.80;99.90;;;;;;4968742;29;20055;-77
2022/05/12 02:57:39;;;;;;;6.18;1.42;;;11.70;99.90;;;;;;4962289;29;20126;-78
2022/05/12 03:00:07;;;;;;;1.95;1.15;;;11.60;99.90;;;;;;4959020;28;20054;-77
2022/05/12 03:02:33;;;;;;;1.30;1.20;;;11.60;99.90;;;;;;4958005;29;20035;-77
2022/05/12 03:04:59;;;;;;;2.63;1.45;;;11.50;99.90;;;;;;4957273;29;20492;-77
2022/05/12 03:07:24;;;;;;;1.17;1.05;;;11.50;99.90;;;;;;4959163;29;20151;-77
2022/05/12 03:09:55;;;;;;;1.20;1.10;;;11.40;99.90;;;;;;4955896;29;20039;-77
2022/05/12 03:12:20;;;;;;;1.95;1.55;;;11.20;99.90;;;;;;4957058;29;20182;-77
2022/05/12 03:14:46;;;;;;;1.17;1.08;;;11.20;99.90;;;;;;4956599;29;20055;-77
2022/05/12 03:17:12;;;;;;;1.20;1.10;;;11.20;99.90;;;;;;4956122;29;20019;-77
2022/05/12 03:19:37;;;;;;;2.03;1.13;;;11.20;99.90;;;;;;4957555;29;20361;-77
2022/05/12 03:22:03;;;;;;;1.52;1.25;;;11.20;99.90;;;;;;4958722;28;20039;-77
2022/05/12 03:24:29;;;;;;;2.92;1.63;;;11.30;99.90;;;;;;4959652;29;20024;-77
2022/05/12 03:26:54;;;;;;;2.08;1.27;;;11.30;99.90;;;;;;4960295;29;20097;-77
2022/05/12 03:29:20;;;;;;;1.45;1.30;;;11.10;99.90;;;;;;4958439;29;20030;-77
2022/05/12 03:31:46;;;;;;;1.90;1.30;;;10.70;99.90;;;;;;4958992;29;20086;-77
2022/05/12 03:34:12;;;;;;;2.75;1.48;;;9.10;99.90;;;;;;4960137;29;20110;-77
2022/05/12 03:36:39;;;;;;;2.50;1.13;;;11.00;99.90;;;;;;4959137;29;20491;-77
2022/05/12 03:39:05;;;;;;;1.95;1.70;;;11.00;99.90;;;;;;4958443;29;20082;-77
2022/05/12 03:41:31;;;;;;;1.85;1.33;;;10.90;99.90;;;;;;4958680;29;20256;-76
2022/05/12 03:46:42;;;;;;;1.30;1.20;;;10.70;99.90;;;;;;4959132;29;20086;-76
2022/05/12 03:49:07;;;;;;;1.73;1.27;;;10.80;99.90;;;;;;4958510;28;20050;-77
2022/05/12 03:51:34;;;;;;;4.90;1.80;;;10.80;99.90;;;;;;4956642;29;20023;-77
2022/05/12 03:53:59;;;;;;;3.08;1.30;;;10.80;99.90;;;;;;4956946;29;20027;-77
2022/05/12 03:56:26;;;;;;;3.15;1.50;;;10.90;99.90;;;;;;4955550;29;20027;-76
2022/05/12 03:58:51;;;;;;;1.20;1.10;;;10.90;99.90;;;;;;4956297;29;20024;-77
2022/05/12 04:01:18;;;;;;;2.15;1.60;;;11.00;99.90;;;;;;4956530;29;20054;-77
2022/05/12 04:03:45;;;;;;;1.38;1.20;;;11.00;99.90;;;;;;4955316;29;20455;-77
2022/05/12 04:06:11;;;;;;;1.42;1.27;;;11.00;99.90;;;;;;4956118;29;20023;-77
2022/05/12 04:08:37;;;;;;;2.65;1.88;;;11.10;99.90;;;;;;4955022;29;20495;-77
2022/05/12 04:11:03;;;;;;;1.75;1.65;;;11.20;99.90;;;;;;4956173;28;20079;-77
2022/05/12 04:13:30;;;;;;;2.83;1.58;;;11.00;99.90;;;;;;4955049;29;20178;-77
2022/05/12 04:15:57;;;;;;;1.45;1.33;;;11.00;99.90;;;;;;4955476;29;20472;-77
2022/05/12 04:18:23;;;;;;;1.40;1.20;;;10.80;99.90;;;;;;4955472;29;20046;-77
2022/05/12 04:20:48;;;;;;;3.53;1.83;;;10.90;99.90;;;;;;4955069;29;20031;-77
2022/05/12 04:23:14;;;;;;;1.60;1.50;;;11.00;99.90;;;;;;4954085;29;20042;-77
2022/05/12 04:25:44;;;;;;;3.13;1.45;;;11.10;99.90;;;;;;4957861;29;20071;-77
2022/05/12 04:28:14;;;;;;;5.68;1.88;;;11.20;99.90;;;;;;4957376;29;20075;-77
2022/05/12 04:30:39;;;;;;;2.08;1.20;;;11.30;99.90;;;;;;4957367;29;20566;-76
2022/05/12 04:35:50;;;;;;;1.52;1.20;;;11.50;99.90;;;;;;4958477;29;20038;-76
2022/05/12 04:38:17;;;;;;;1.70;1.60;;;11.50;99.90;;;;;;4956952;29;20051;-76
2022/05/12 04:40:43;;;;;;;4.20;1.70;;;11.50;99.90;;;;;;4957111;29;20062;-77
2022/05/12 04:43:08;;;;;;;1.73;1.38;;;11.70;99.90;;;;;;4958426;29;20446;-77
2022/05/12 04:45:38;;;;;;;4.93;1.38;;;11.90;99.90;;;;;;4958077;29;20112;-77
2022/05/12 04:48:04;;;;;;;2.88;1.45;;;12.00;99.90;;;;;;4957300;29;20042;-77
2022/05/12 04:50:34;;;;;;;1.30;1.25;;;12.10;99.90;;;;;;4956567;29;20030;-77
2022/05/12 04:53:00;;;;;;;1.40;1.30;;;12.10;99.90;;;;;;4956219;29;20031;-77
2022/05/12 04:55:27;;;;;;;1.33;1.13;;;12.30;99.90;;;;;;4952827;29;20031;-77
2022/05/12 04:57:55;;;;;;;1.10;1.10;;;12.60;99.90;;;;;;4956626;29;20310;-77
2022/05/12 05:00:25;;;;;;;1.67;1.00;;;12.60;99.90;;;;;;4954863;29;20042;-77
2022/05/12 05:02:51;;;;;;;1.33;1.05;;;12.90;99.90;;;;;;4937550;29;20560;-77
2022/05/12 05:05:18;;;;;;;1.20;1.10;;;13.20;99.90;;;;;;4954546;29;20050;-77
2022/05/12 05:07:43;;;;;;;3.63;1.00;;;13.30;99.90;;;;;;4955366;29;20138;-77
2022/05/12 05:10:12;;;;;;;1.80;1.30;;;13.30;99.90;;;;;;4956907;29;20102;-77
2022/05/12 05:12:39;;;;;;;2.40;1.55;;;13.40;99.90;;;;;;4963839;29;20054;-74
2022/05/12 05:15:06;;;;;;;3.83;1.58;;;13.40;99.90;;;;;;4953602;29;20027;-80
2022/05/12 05:17:32;;;;;;;1.23;1.13;;;13.50;99.90;;;;;;4955509;29;20325;-79
2022/05/12 05:19:57;;;;;;;1.10;1.00;;;13.40;99.90;;;;;;4949582;29;20252;-81
2022/05/12 05:22:23;;;;;;;2.28;1.40;;;13.30;99.90;;;;;;4940352;29;20042;-81
2022/05/12 05:24:49;;;;;;;1.90;1.73;;;13.40;99.90;;;;;;4944455;29;20080;-82
2022/05/12 05:27:14;;;;;;;2.45;1.35;;;13.50;99.90;;;;;;4939986;29;20023;-83
2022/05/12 05:29:41;;;;;;;2.30;1.10;;;11.40;99.90;;;;;;4941812;29;20039;-80
2022/05/12 05:32:10;;;;;;;2.53;1.50;;;13.60;99.90;;;;;;4933419;29;20027;-80
2022/05/12 05:34:36;;;;;;;0.90;0.90;;;13.70;99.90;;;;;;4941732;29;20030;-86
2022/05/12 05:37:02;;;;;;;1.65;0.82;;;13.90;99.90;;;;;;4943332;29;20099;-87
2022/05/12 05:44:39;;;;;;;1.10;1.00;;;14.60;99.90;;;;;;5720515;23;20054;-85
2022/05/12 05:47:05;;;;;;;2.47;1.00;;;14.60;99.90;;;;;;4967049;28;20365;-85
2022/05/12 05:49:33;;;;;;;2.30;1.00;;;14.80;99.90;;;;;;4965694;28;20365;-79
2022/05/12 05:54:43;;;;;;;0.80;0.80;;;15.10;99.90;;;;;;4951014;28;20058;-87
2022/05/12 05:57:09;;;;;;;1.00;1.00;;;15.30;99.90;;;;;;4949521;28;20519;-85
2022/05/12 05:59:35;;;;;;;0.90;0.90;;;15.50;99.90;;;;;;4949523;28;20090;-82
2022/05/12 06:02:01;;;;;;;1.45;0.90;;;15.70;99.90;;;;;;4949585;28;20109;-85
2022/05/12 06:04:28;;;;;;;1.42;1.30;;;15.90;99.90;;;;;;4965726;28;20031;-83
2022/05/12 06:06:54;;;;;;;0.90;0.90;;;18.40;99.90;;;;;;4950943;28;20035;-87
2022/05/12 06:09:20;;;;;;;3.45;1.40;;;16.60;99.90;;;;;;4950195;28;20090;-87
2022/05/12 06:11:46;;;;;;;1.10;1.00;;;16.60;99.90;;;;;;4951341;28;20243;-83
2022/05/12 06:14:12;;;;;;;1.63;0.80;;;17.70;99.90;;;;;;4970899;28;20050;-77
2022/05/12 06:16:42;;;;;;;1.50;1.20;;;17.20;99.90;;;;;;4956325;28;20055;-80
2022/05/12 06:19:08;;;;;;;;;;;17.50;99.90;;;;;;4968481;28;20015;-82
2022/05/12 06:21:37;;;;;;;1.67;0.80;;;17.90;99.90;;;;;;4965715;28;19941;-80
2022/05/12 06:24:03;;;;;;;2.10;0.75;;;18.30;99.90;;;;;;4979709;28;20071;-82
2022/05/12 06:26:29;;;;;;;1.38;0.90;;;18.60;99.90;;;;;;4980569;28;20035;-81
2022/05/12 06:28:56;;;;;;;2.92;1.38;;;18.60;99.90;;;;;;4976010;28;20264;-79
2022/05/12 06:31:29;;;;;;;0.75;0.70;;;18.60;99.90;;;;;;4954690;28;20130;-79
2022/05/12 06:33:57;;;;;;;1.00;0.95;;;18.60;99.90;;;;;;4952640;28;20027;-79
2022/05/12 06:36:23;;;;;;;1.65;0.77;;;18.70;99.90;;;;;;4954004;28;20023;-79
2022/05/12 06:38:49;;;;;;;1.50;0.70;;;18.70;99.90;;;;;;4954761;28;20389;-79
2022/05/12 06:41:15;;;;;;;2.92;1.42;;;18.70;99.90;;;;;;4954006;28;20055;-79
2022/05/12 06:43:45;;;;;;;3.30;1.60;;;18.70;99.40;;;;;;4953223;28;20019;-79
2022/05/12 06:46:16;;;;;;;1.08;1.00;;;18.80;99.90;;;;;;4950463;28;20575;-78
2022/05/12 06:48:51;;;;;;;1.65;0.98;;;18.90;99.90;;;;;;4952247;28;20046;-80
2022/05/12 06:51:18;;;;;;;0.95;0.77;;;18.80;99.90;;;;;;4949597;28;20110;-79
2022/05/12 06:53:45;;;;;;;2.30;1.10;;;19.00;99.90;;;;;;4951077;28;20023;-79
2022/05/12 06:56:11;;;;;;;2.47;0.80;;;19.40;99.40;;;;;;4954256;28;20087;-82
2022/05/12 06:58:37;;;;;;;1.08;0.90;;;20.20;92.60;;;;;;4955881;28;20051;-85
2022/05/12 07:01:03;;;;;;;2.33;1.05;;;20.80;89.50;;;;;;4951800;28;20027;-80
2022/05/12 07:03:31;;;;;;;1.50;0.50;;;22.10;74.00;;;;;;4955867;28;20388;-84
2022/05/12 07:05:57;;;;;;;0.70;0.70;;;23.20;63.70;;;;;;4955239;28;20360;-82
2022/05/12 07:08:23;;;;;;;0.68;0.68;;;23.70;61.70;;;;;;4953324;28;20046;-80
2022/05/12 07:10:49;;;;;;;1.38;0.63;;;23.90;60.10;;;;;;4955073;28;20058;-80
2022/05/12 07:13:19;;;;;;;1.67;0.80;;;24.10;59.50;;;;;;4956237;28;20106;-80
2022/05/12 07:15:47;;;;;;;2.35;0.88;;;24.00;58.10;;;;;;4962684;28;20019;-81
2022/05/12 07:18:14;;;;;;;1.85;1.08;;;23.40;59.10;;;;;;4959989;28;20290;-81
2022/05/12 07:28:53;;;;;;;0.82;0.82;;;24.00;59.70;;;;;;4954258;28;20085;-81
2022/05/12 07:31:18;;;;;;;2.75;1.20;;;24.00;59.00;;;;;;4954068;28;20051;-81
2022/05/12 07:33:46;;;;;;;2.00;0.82;;;24.00;57.40;;;;;;4952788;28;20066;-81
2022/05/12 07:36:18;;;;;;;0.52;0.50;;;23.80;57.70;;;;;;4973177;28;20119;-83
2022/05/12 07:38:45;;;;;;;0.70;0.50;;;24.00;57.00;;;;;;4954942;28;20543;-80
2022/05/12 07:41:12;;;;;;;0.82;0.82;;;24.30;55.80;;;;;;4963981;28;20110;-80
2022/05/12 07:43:42;;;;;;;1.05;0.63;;;24.30;56.20;;;;;;4979463;28;20023;-81
2022/05/12 07:46:09;;;;;;;2.45;0.80;;;24.10;59.20;;;;;;4963743;28;20051;-80
2022/05/12 07:48:35;;;;;;;1.92;0.80;;;24.80;56.60;;;;;;4964326;28;20349;-81
2022/05/12 07:51:05;;;;;;;2.00;0.80;;;24.70;55.30;;;;;;4963332;28;20216;-80
2022/05/12 07:53:31;;;;;;;0.93;0.88;;;;;;;;;;4958766;28;20035;-80
2022/05/12 07:55:57;;;;;;;3.80;0.80;;;24.40;54.70;;;;;;4961014;28;20042;-80
2022/05/12 07:58:23;;;;;;;0.50;0.50;;;24.20;56.40;;;;;;4963662;28;20035;-82
2022/05/12 08:00:48;;;;;;;1.75;0.65;;;24.30;57.50;;;;;;4974295;28;20023;-81
2022/05/12 08:03:14;;;;;;;0.93;0.70;;;24.50;56.90;;;;;;4963279;28;20027;-81
2022/05/12 08:05:40;;;;;;;5.70;1.20;;;24.10;57.80;;;;;;4961424;28;20094;-81
2022/05/12 08:08:08;;;;;;;1.23;0.60;;;24.20;59.10;;;;;;4954704;28;20094;-81
2022/05/12 08:10:35;;;;;;;0.50;0.50;;;24.50;58.00;;;;;;4955082;28;20054;-81
2022/05/12 08:13:00;;;;;;;1.83;0.90;;;23.50;58.40;;;;;;4954594;28;20041;-82
2022/05/12 08:15:26;;;;;;;1.67;0.60;;;23.50;58.90;;;;;;4951618;28;20031;-80
2022/05/12 08:17:53;;;;;;;1.17;1.02;;;23.80;57.30;;;;;;4953235;28;20074;-80
2022/05/12 08:20:19;;;;;;;1.38;1.27;;;23.60;58.70;;;;;;4968280;28;20046;-79
2022/05/12 08:22:45;;;;;;;1.38;0.80;;;23.30;57.60;;;;;;4968725;28;20115;-81
2022/05/12 08:25:11;;;;;;;5.75;1.38;;;23.40;59.60;;;;;;4968414;28;20126;-80
2022/05/12 08:27:37;;;;;;;7.05;1.27;;;23.20;60.50;;;;;;4952249;28;20031;-79
2022/05/12 08:30:07;;;;;;;1.23;0.80;;;22.90;59.50;;;;;;4952267;28;20030;-81
2022/05/12 08:32:33;;;;;;;1.73;0.95;;;;;;;;;;4955157;28;20030;-85
2022/05/12 08:34:59;;;;;;;2.03;1.15;;;23.10;57.80;;;;;;4952794;28;20043;-80
2022/05/12 08:37:25;;;;;;;2.08;1.25;;;23.40;58.80;;;;;;4951084;28;20020;-83
2022/05/12 08:39:51;;;;;;;2.50;1.40;;;23.00;60.70;;;;;;4949991;28;20030;-78
2022/05/12 08:42:41;;;;;;;0.82;0.80;;;23.10;59.30;;;;;;4951338;28;20074;-78
2022/05/12 08:45:08;;;;;;;1.17;0.95;;;23.00;61.20;;;;;;4950838;28;20156;-78
2022/05/12 08:47:42;;;;;;;0.68;0.68;;;22.80;63.00;;;;;;4949218;28;20038;-78
2022/05/12 08:50:09;;;;;;;3.47;0.68;;;23.60;60.70;;;;;;4949433;28;20086;-78
2022/05/12 08:52:52;;;;;;;2.35;1.30;;;23.40;58.80;;;;;;4949542;28;20035;-78
2022/05/12 08:55:25;;;;;;;0.82;0.73;;;23.80;57.80;;;;;;4949694;28;20066;-78
2022/05/12 08:58:28;;;;;;;4.10;0.88;;;24.20;57.80;;;;;;4950972;28;20511;-77
2022/05/12 09:01:17;;;;;;;1.33;0.80;;;24.50;59.50;;;;;;4952146;28;20034;-79
2022/05/12 09:04:00;;;;;;;0.65;0.50;;;23.80;58.30;;;;;;4966284;28;20023;-78
2022/05/12 09:06:35;;;;;;;1.75;1.15;;;23.40;59.10;;;;;;4952161;28;20178;-79
2022/05/12 09:09:29;;;;;;;1.92;0.80;;;23.40;58.30;;;;;;4966621;28;20467;-77
2022/05/12 09:12:14;;;;;;;3.83;1.15;;;23.50;58.80;;;;;;4948015;28;20042;-77
2022/05/12 09:14:56;;;;;;;3.05;0.82;;;23.90;57.20;;;;;;4950672;28;20023;-77
2022/05/12 09:17:27;;;;;;;0.63;0.60;;;23.80;57.20;;;;;;4952156;28;20031;-78
2022/05/12 09:19:53;;;;;;;0.82;0.82;;;24.00;58.70;;;;;;4951293;28;20046;-77
2022/05/12 09:22:29;;;;;;;1.45;0.70;;;24.20;57.50;;;;;;4967092;28;20089;-83
2022/05/12 09:24:55;;;;;;;1.10;0.65;;;24.40;56.40;;;;;;4952881;28;20031;-84
2022/05/12 09:27:32;;;;;;;2.95;0.68;;;24.30;57.40;;;;;;4951386;28;20264;-84
2022/05/12 09:29:58;;;;;;;2.00;0.73;;;24.30;58.30;;;;;;4949398;28;20502;-81
2022/05/12 09:32:28;;;;;;;1.77;0.75;;;23.80;57.60;;;;;;4948901;28;20053;-82
2022/05/12 09:35:12;;;;;;;12.90;1.27;;;23.80;61.80;;;;;;4948786;28;20034;-81
2022/05/12 09:37:41;;;;;;;1.63;1.45;;;24.00;60.60;;;;;;4950226;28;20031;-82
2022/05/12 09:40:32;;;;;;;2.00;1.20;;;24.50;56.70;;;;;;4965213;28;20477;-82
2022/05/12 09:43:01;;;;;;;3.25;1.00;;;24.70;56.40;;;;;;4948907;28;20050;-81
2022/05/12 09:45:26;;;;;;;;;;;24.00;59.00;;;;;;4949137;28;20063;-82
2022/05/12 09:48:25;;;;;;;4.55;1.00;;;25.90;59.30;;;;;;4949928;28;19946;-82
2022/05/12 09:50:53;;;;;;;0.45;0.43;;;24.50;57.30;;;;;;4949442;28;20515;-81
2022/05/12 09:53:31;;;;;;;2.53;0.80;;;24.70;58.50;;;;;;4950677;28;20035;-84
2022/05/12 09:56:03;;;;;;;1.02;0.60;;;25.20;56.60;;;;;;4949551;28;20068;-83
2022/05/12 09:58:47;;;;;;;1.67;0.70;;;25.40;55.90;;;;;;4949239;28;20030;-81
2022/05/12 10:01:23;;;;;;;3.47;0.98;;;25.20;57.20;;;;;;4951822;28;20027;-82
2022/05/12 10:09:29;;;;;;;1.95;0.80;;;25.40;55.30;;;;;;4951782;28;20644;-84
2022/05/12 10:12:17;;;;;;;2.15;0.70;;;25.50;54.90;;;;;;4951604;28;20028;-81
2022/05/12 10:15:03;;;;;;;2.55;1.13;;;25.60;55.30;;;;;;4950283;28;20499;-81
2022/05/12 10:17:47;;;;;;;1.65;0.52;;;25.30;56.90;;;;;;4949728;28;20038;-85
2022/05/12 10:20:21;;;;;;;3.15;1.27;;;26.60;56.60;;;;;;4950307;28;20031;-81
2022/05/12 10:22:55;;;;;;;0.80;0.80;;;24.90;57.00;;;;;;4951149;28;20020;-81
2022/05/12 10:26:09;;;;;;;1.30;0.90;;;25.70;57.30;;;;;;4951405;28;20432;-81
2022/05/12 10:29:05;;;;;;;2.42;0.50;;;26.20;55.10;;;;;;4944713;28;20074;-84
2022/05/12 10:31:45;;;;;;;1.55;1.17;;;26.60;55.30;;;;;;4953664;28;20027;-83
2022/05/12 10:34:23;;;;;;;1.00;0.52;;;26.70;54.90;;;;;;4953624;28;20038;-83
2022/05/12 10:37:07;;;;;;;2.65;0.70;;;26.80;56.30;;;;;;4954866;28;20019;-80
2022/05/12 10:39:52;;;;;;;2.03;0.88;;;26.90;54.00;;;;;;4953318;28;20118;-80
2022/05/12 10:42:53;;;;;;;0.95;0.75;;;26.90;55.20;;;;;;4954708;28;20023;-81
2022/05/12 10:45:40;;;;;;;1.77;0.88;;;26.30;56.30;;;;;;4953404;28;20519;-81
2022/05/12 10:48:15;;;;;;;3.53;1.30;;;25.90;56.70;;;;;;4969165;28;20090;-80
2022/05/12 10:51:03;;;;;;;3.47;1.15;;;26.60;56.00;;;;;;4953539;28;20031;-80
2022/05/12 10:53:50;;;;;;;1.58;0.80;;;26.40;54.50;;;;;;4954892;28;20027;-81
2022/05/12 10:56:24;;;;;;;3.53;0.63;;;26.90;56.10;;;;;;4954462;28;20027;-82
2022/05/12 10:59:02;;;;;;;2.25;0.93;;;27.30;56.10;;;;;;4953385;28;20027;-81
2022/05/12 11:01:38;;;;;;;2.65;1.02;;;28.00;52.60;;;;;;4953066;28;20031;-81
2022/05/12 11:04:11;;;;;;;1.48;0.75;;;28.30;53.80;;;;;;4952818;28;20023;-82
2022/05/12 11:06:42;;;;;;;3.15;0.70;;;28.80;54.30;;;;;;4953138;28;20043;-81
2022/05/12 11:09:20;;;;;;;3.08;1.00;;;29.20;52.60;;;;;;4954469;28;20046;-81
2022/05/12 11:11:50;;;;;;;4.07;0.90;;;28.90;51.70;;;;;;4953087;28;20082;-81
2022/05/12 11:14:40;;;;;;;4.72;1.00;;;28.50;52.20;;;;;;4954320;28;20035;-81
2022/05/12 11:17:09;;;;;;;2.22;1.10;;;28.70;53.20;;;;;;4952408;28;20024;-81
2022/05/12 11:19:38;;;;;;;1.50;0.75;;;28.50;50.90;;;;;;4952822;28;20042;-81
2022/05/12 11:22:34;;;;;;;1.25;0.60;;;28.50;51.00;;;;;;4954075;28;20450;-81
2022/05/12 11:25:15;;;;;;;2.83;0.50;;;28.20;52.30;;;;;;4954228;28;20406;-81
2022/05/12 11:31:19;;;;;;;5.78;1.35;;;25.80;54.20;;;;;;4953988;28;20086;-81
2022/05/12 11:33:51;;;;;;;2.35;0.98;;;25.80;54.80;;;;;;4968745;28;20869;-81
2022/05/12 11:36:17;;;;;;;1.00;0.90;;;26.00;55.40;;;;;;4953949;28;20559;-82
2022/05/12 11:38:48;;;;;;;5.35;1.10;;;26.10;58.50;;;;;;4952550;28;20035;-82
2022/05/12 11:41:19;;;;;;;2.40;1.35;;;26.30;56.50;;;;;;4951782;28;20499;-82
2022/05/12 11:46:41;;;;;;;1.25;1.10;;;25.20;58.40;;;;;;4946026;28;20068;-84
2022/05/12 11:49:19;;;;;;;3.47;1.50;;;25.20;59.40;;;;;;4951212;28;20081;-83
2022/05/12 11:51:54;;;;;;;2.17;1.20;;;25.60;59.40;;;;;;4957360;28;20469;-83
2022/05/12 11:54:40;;;;;;;2.75;0.80;;;25.70;57.50;;;;;;4951927;28;20038;-82
2022/05/12 11:57:25;;;;;;;3.08;1.17;;;25.70;59.30;;;;;;4967310;28;20483;-83
2022/05/12 11:59:54;;;;;;;4.07;0.90;;;25.60;58.60;;;;;;4949518;28;20424;-83
2022/05/12 12:02:29;;;;;;;2.65;1.35;;;25.30;60.80;;;;;;4950043;28;20023;-83
2022/05/12 12:04:57;;;;;;;1.45;0.82;;;25.50;58.80;;;;;;4965803;28;20123;-85
2022/05/12 12:07:31;;;;;;;2.05;1.20;;;25.90;58.60;;;;;;4970130;28;20050;-82
2022/05/12 12:10:23;;;;;;;2.75;1.35;;;26.20;60.10;;;;;;4969423;28;20074;-87
2022/05/12 12:12:54;;;;;;;2.10;1.23;;;27.00;56.10;;;;;;4958259;28;20027;-88
2022/05/12 12:15:34;;;;;;;3.90;0.90;;;26.80;54.20;;;;;;4968784;28;20081;-88
2022/05/12 12:18:25;;;;;;;3.42;0.98;;;26.60;54.90;;;;;;4969126;28;20027;-85
2022/05/12 12:20:57;;;;;;;6.57;1.23;;;27.20;55.50;;;;;;4969437;28;20023;-86
2022/05/12 12:23:36;;;;;;;2.42;0.82;;;27.10;56.30;;;;;;4968666;28;20026;-84
2022/05/12 12:26:11;;;;;;;4.28;1.00;;;26.80;55.40;;;;;;4968484;28;20141;-87
2022/05/12 12:28:59;;;;;;;2.72;1.25;;;26.80;54.40;;;;;;4968444;28;20043;-84
2022/05/12 12:31:28;;;;;;;1.70;0.80;;;26.70;55.20;;;;;;4969125;28;20037;-87
2022/05/12 12:34:11;;;;;;;3.22;1.30;;;27.70;55.50;;;;;;4968112;28;20058;-81
2022/05/12 12:36:37;;;;;;;2.08;0.98;;;29.10;54.80;;;;;;4969797;28;20027;-85
2022/05/12 12:39:11;;;;;;;1.40;1.15;;;28.50;52.30;;;;;;4967736;28;20041;-82
2022/05/12 12:41:43;;;;;;;4.82;1.33;;;28.50;53.50;;;;;;4949731;28;20034;-84
2022/05/12 12:44:22;;;;;;;1.83;0.63;;;28.00;54.50;;;;;;4948393;28;20034;-82
2022/05/12 12:46:53;;;;;;;;;;;28.70;55.50;;;;;;4950675;28;20023;-81
2022/05/12 12:49:29;;;;;;;1.08;0.70;;;29.20;55.30;;;;;;4951763;28;20016;-82
2022/05/12 12:52:04;;;;;;;3.10;0.98;;;29.00;53.50;;;;;;4948865;28;20310;-83
2022/05/12 12:57:19;;;;;;;2.55;1.00;;;29.60;51.80;;;;;;4950716;28;20054;-82
2022/05/12 13:00:11;;;;;;;1.38;0.80;;;30.30;51.20;;;;;;4948993;28;20047;-82
2022/05/12 13:02:44;;;;;;;4.97;1.38;;;30.40;52.30;;;;;;4949270;28;20049;-83
2022/05/12 13:05:19;;;;;;;0.95;0.90;;;30.40;52.70;;;;;;4949483;28;20530;-83
2022/05/12 13:08:04;;;;;;;1.80;0.88;;;29.20;53.30;;;;;;4950802;28;20039;-82
2022/05/12 13:10:41;;;;;;;4.40;1.25;;;28.70;52.90;;;;;;4949392;28;20117;-82
2022/05/12 13:13:07;;;;;;;2.03;1.75;;;27.80;56.20;;;;;;4950594;28;20019;-82
2022/05/12 13:15:48;;;;;;;3.15;1.40;;;28.40;56.80;;;;;;5046545;27;1667439;-83
2022/05/12 13:18:22;;;;;;;1.58;1.23;;;29.50;54.20;;;;;;5085187;28;20025;-82
2022/05/12 13:20:50;;;;;;;0.88;0.88;;;29.40;52.70;;;;;;5085411;28;20016;-83
2022/05/12 13:23:23;;;;;;;3.70;1.07;;;29.70;51.20;;;;;;5084946;28;20043;-83
2022/05/12 13:25:50;;;;;;;2.55;1.30;;;30.80;52.40;;;;;;5085111;28;20477;-83
2022/05/12 13:28:27;;;;;;;2.20;0.65;;;30.90;51.90;;;;;;5086671;28;20032;-83
2022/05/12 13:31:23;;;;;;;6.13;1.30;;;31.00;52.00;;;;;;5086925;28;20023;-83
2022/05/12 13:34:20;;;;;;;1.83;1.10;;;31.00;51.10;;;;;;5078474;28;20127;-83
2022/05/12 13:36:48;;;;;;;2.03;0.75;;;30.10;50.50;;;;;;5086438;28;20020;-83
2022/05/12 13:39:49;;;;;;;2.17;0.80;;;30.10;51.50;;;;;;5085122;28;20104;-83
2022/05/12 13:42:19;;;;;;;2.55;0.77;;;30.70;52.20;;;;;;5084973;28;20435;-81
2022/05/12 13:44:50;;;;;;;1.88;0.98;;;31.20;52.10;;;;;;5086119;28;20024;-83
2022/05/12 13:47:29;;;;;;;4.93;1.00;;;30.90;51.10;;;;;;5086350;28;20028;-81